Time;durP1;ratioP1;P1;durP2;ratioP2;P2;SDS_P1;SDS_P2;PMS_P1;PMS_P2;Temp;Humidity;BMP_temperature;BMP_pressure;BME280_temperature;BME280_humidity;BME280_pressure;Samples;Min_cycle;Max_cycle;Signal;HPM_P1;HPM_P2
2022/04/23 00:01:37;;;;;;;12.38;11.07;;;;;;;11.48;52.71;97531.13;2618064;54;20026;-67
2022/04/23 00:04:10;;;;;;;13.75;12.32;;;;;;;11.46;52.68;97527.91;2618506;54;20039;-67
2022/04/23 00:06:40;;;;;;;14.27;12.20;;;;;;;11.48;52.57;97528.50;2618293;54;20589;-67
2022/04/23 00:09:13;;;;;;;14.20;12.70;;;;;;;11.48;52.61;97528.50;2618150;54;20034;-67
2022/04/23 00:11:43;;;;;;;14.45;12.82;;;;;;;11.44;52.88;97527.34;2618510;54;20038;-67
2022/04/23 00:14:12;;;;;;;14.85;13.27;;;;;;;11.39;52.74;97523.53;2618393;54;20034;-67
2022/04/23 00:16:42;;;;;;;13.65;12.25;;;;;;;11.38;53.23;97529.84;2617452;54;20030;-67
2022/04/23 00:19:12;;;;;;;16.40;13.85;;;;;;;11.33;53.28;97526.28;2617886;54;20085;-67
2022/04/23 00:21:42;;;;;;;16.23;12.65;;;;;;;11.32;53.48;97528.13;2617904;46;20596;-67
2022/04/23 00:24:14;;;;;;;15.07;13.55;;;;;;;11.34;53.32;97523.41;2618239;54;20041;-67
2022/04/23 00:26:44;;;;;;;17.08;13.60;;;;;;;11.32;53.14;97516.75;2618517;54;20035;-67
2022/04/23 00:29:13;;;;;;;16.55;14.75;;;;;;;11.29;53.23;97520.63;2622501;54;20038;-67
2022/04/23 00:31:45;;;;;;;18.25;13.15;;;;;;;11.24;53.79;97517.88;2623125;54;20041;-70
2022/04/23 00:34:15;;;;;;;15.75;14.07;;;;;;;11.22;53.58;97521.78;2622350;54;20038;-67
2022/04/23 00:36:45;;;;;;;16.70;13.73;;;;;;;11.21;53.77;97523.63;2623436;39;20392;-67
2022/04/23 00:39:17;;;;;;;13.77;12.38;;;;;;;11.12;53.92;97522.34;2622289;54;20114;-67
2022/04/23 00:41:48;;;;;;;16.30;13.68;;;;;;;11.15;53.59;97529.84;2622351;54;20054;-67
2022/04/23 00:44:18;;;;;;;17.15;14.52;;;;;;;11.11;54.00;97526.03;2622161;54;20045;-67
2022/04/23 00:46:48;;;;;;;16.70;14.90;;;;;;;11.12;54.27;97525.78;2620981;54;20034;-67
2022/04/23 00:49:18;;;;;;;14.65;12.93;;;;;;;11.10;54.23;97524.38;2620000;54;20045;-71
2022/04/23 00:51:47;;;;;;;15.60;12.90;;;;;;;11.14;54.32;97523.75;2620529;39;20466;-68
2022/04/23 00:54:22;;;;;;;15.70;13.70;;;;;;;11.17;54.04;97525.09;2620050;39;20439;-68
2022/04/23 00:56:52;;;;;;;16.45;13.95;;;;;;;11.11;54.06;97520.75;2619498;54;20137;-66
2022/04/23 00:59:22;;;;;;;20.30;15.07;;;;;;;11.05;54.44;97524.28;2621605;54;20122;-67
2022/04/23 01:01:53;;;;;;;17.38;14.93;;;;;;;10.99;54.58;97522.56;2621931;54;20031;-67
2022/04/23 01:04:23;;;;;;;16.92;15.23;;;;;;;10.98;54.22;97526.19;2621168;51;20535;-67
2022/04/23 01:06:52;;;;;;;16.55;14.68;;;;;;;10.91;54.45;97527.13;2621222;54;20034;-67
2022/04/23 01:09:25;;;;;;;16.98;15.27;;;;;;;10.90;54.39;97525.50;2622200;39;20458;-68
2022/04/23 01:11:56;;;;;;;19.85;15.68;;;;;;;10.85;54.83;97530.66;2622337;54;20601;-68
2022/04/23 01:14:25;;;;;;;20.60;15.48;;;;;;;10.79;55.18;97533.41;2622685;54;20029;-67
2022/04/23 01:16:55;;;;;;;16.80;15.00;;;;;;;10.80;55.16;97522.59;2619700;54;20038;-67
2022/04/23 01:19:25;;;;;;;18.95;15.75;;;;;;;10.79;55.28;97538.69;2619961;54;20031;-68
2022/04/23 01:21:59;;;;;;;16.55;14.85;;;;;;;10.71;55.22;97523.94;2619640;54;20086;-68
2022/04/23 01:24:30;;;;;;;;;;;;;;;10.66;55.47;97529.91;2620999;54;20062;-67
2022/04/23 01:27:00;;;;;;;19.08;15.88;;;;;;;10.64;55.54;97526.66;2621271;54;19939;-68
2022/04/23 01:29:30;;;;;;;17.90;16.05;;;;;;;10.59;55.28;97512.53;2624159;54;20033;-67
2022/04/23 01:31:59;;;;;;;19.45;16.30;;;;;;;10.55;55.63;97516.66;2623343;54;20038;-68
2022/04/23 01:34:29;;;;;;;18.33;16.33;;;;;;;10.50;55.87;97513.88;2622114;54;20034;-67
2022/04/23 01:37:01;;;;;;;19.05;16.52;;;;;;;10.43;55.94;97515.78;2621416;54;20038;-66
2022/04/23 01:39:31;;;;;;;18.23;16.33;;;;;;;10.26;56.25;97511.13;2621372;54;20074;-67
2022/04/23 01:42:00;;;;;;;20.40;16.52;;;;;;;10.23;56.84;97508.06;2622340;54;20031;-68
2022/04/23 01:44:30;;;;;;;20.50;16.58;;;;;;;10.21;56.58;97504.88;2623361;54;20026;-66
2022/04/23 01:46:59;;;;;;;18.92;15.90;;;;;;;10.18;56.93;97504.25;2622170;47;20070;-67
2022/04/23 01:49:29;;;;;;;23.30;18.00;;;;;;;10.15;57.21;97503.91;2623325;54;20063;-69
2022/04/23 01:52:01;;;;;;;17.65;15.25;;;;;;;10.07;56.93;97505.00;2623092;54;20030;-66
2022/04/23 01:54:32;;;;;;;19.90;17.75;;;;;;;10.07;57.59;97505.00;2623864;54;20042;-67
2022/04/23 01:57:02;;;;;;;20.52;17.42;;;;;;;10.04;57.33;97502.81;2627190;54;20038;-67
2022/04/23 01:59:32;;;;;;;20.20;17.52;;;;;;;10.00;57.38;97508.75;2627280;54;20035;-66
2022/04/23 02:02:01;;;;;;;18.10;15.93;;;;;;;9.87;58.01;97502.56;2627017;54;20039;-67
2022/04/23 02:04:32;;;;;;;20.75;16.48;;;;;;;9.86;58.18;97506.25;2626258;54;20042;-67
2022/04/23 02:07:05;;;;;;;20.80;18.05;;;;;;;9.85;58.04;97509.13;2622962;54;20079;-67
2022/04/23 02:09:35;;;;;;;17.25;15.40;;;;;;;9.85;58.03;97509.91;2623405;54;20038;-67
2022/04/23 02:12:06;;;;;;;19.90;16.60;;;;;;;9.96;57.83;97512.84;2623621;54;20026;-65
2022/04/23 02:14:35;;;;;;;20.60;17.15;;;;;;;9.96;58.09;97518.13;2624360;39;20407;-66
2022/04/23 02:17:06;;;;;;;21.45;16.77;;;;;;;9.95;57.66;97517.31;2623820;39;20490;-66
2022/04/23 02:19:35;;;;;;;19.98;17.67;;;;;;;9.88;58.04;97514.78;2623318;54;20038;-66
2022/04/23 02:22:08;;;;;;;23.15;18.05;;;;;;;9.86;58.51;97522.09;2624459;39;20440;-67
2022/04/23 02:24:37;;;;;;;36.15;28.75;;;;;;;9.85;58.53;97517.84;2622649;54;20030;-67
2022/04/23 02:27:08;;;;;;;19.40;17.38;;;;;;;9.89;58.35;97524.28;2620245;54;20045;-67
2022/04/23 02:29:38;;;;;;;18.55;15.85;;;;;;;9.89;58.01;97513.75;2621040;54;20107;-66
2022/04/23 02:32:09;;;;;;;20.17;17.90;;;;;;;9.95;58.06;97513.88;2621190;54;20042;-67
2022/04/23 02:34:39;;;;;;;21.70;17.40;;;;;;;9.91;58.20;97518.78;2620818;47;20039;-67
2022/04/23 02:37:12;;;;;;;21.25;17.77;;;;;;;9.84;58.39;97516.22;2621379;54;20086;-67
2022/04/23 02:39:43;;;;;;;19.48;15.88;;;;;;;9.79;58.53;97520.53;2621288;54;20074;-68
2022/04/23 02:42:12;;;;;;;17.88;15.95;;;;;;;9.79;58.48;97520.53;2620958;54;20061;-67
2022/04/23 02:44:43;;;;;;;18.50;16.52;;;;;;;9.81;58.38;97521.94;2620703;54;20022;-68
2022/04/23 02:47:13;;;;;;;19.98;17.20;;;;;;;9.80;58.48;97512.41;2621134;39;20415;-69
2022/04/23 02:49:43;;;;;;;22.13;18.05;;;;;;;9.78;58.83;97514.44;2620820;46;20555;-68
2022/04/23 02:52:15;;;;;;;19.77;17.75;;;;;;;9.62;59.03;97517.66;2620550;54;20035;-67
2022/04/23 02:54:45;;;;;;;21.58;17.60;;;;;;;9.54;59.17;97517.94;2621379;54;20041;-67
2022/04/23 02:57:16;;;;;;;20.90;17.92;;;;;;;9.38;59.62;97517.44;2619914;54;20037;-67
2022/04/23 02:59:45;;;;;;;20.48;17.27;;;;;;;9.42;59.86;97518.63;2620070;39;20450;-67
2022/04/23 03:02:15;;;;;;;20.35;17.15;;;;;;;9.46;59.81;97510.28;2618646;54;20042;-66
2022/04/23 03:04:45;;;;;;;21.65;18.02;;;;;;;9.51;59.69;97513.91;2618442;54;20026;-67
2022/04/23 03:07:17;;;;;;;21.60;18.48;;;;;;;9.43;59.65;97512.38;2617838;54;20054;-67
2022/04/23 03:09:47;;;;;;;20.88;18.65;;;;;;;9.30;60.18;97512.44;2618449;47;20089;-67
2022/04/23 03:12:17;;;;;;;22.08;19.77;;;;;;;9.31;60.54;97515.91;2617711;54;20034;-67
2022/04/23 03:14:46;;;;;;;21.85;19.10;;;;;;;9.31;60.44;97526.47;2617662;47;20031;-67
2022/04/23 03:17:16;;;;;;;20.73;18.55;;;;;;;9.30;60.53;97520.38;2618058;54;20082;-66
2022/04/23 03:19:46;;;;;;;22.52;18.33;;;;;;;9.26;60.70;97521.00;2618213;54;20034;-66
2022/04/23 03:22:20;;;;;;;22.45;19.35;;;;;;;9.27;60.83;97520.81;2618145;54;20041;-66
2022/04/23 03:24:50;;;;;;;;;;;;;;;9.22;60.38;97518.00;2618256;54;20090;-67
2022/04/23 03:27:20;;;;;;;21.50;17.45;;;;;;;9.23;61.01;97518.81;2617840;54;19966;-66
2022/04/23 03:29:49;;;;;;;23.65;18.73;;;;;;;9.26;60.84;97521.81;2618110;54;20038;-67
2022/04/23 03:32:19;;;;;;;22.05;18.67;;;;;;;9.27;60.67;97517.38;2617660;54;20026;-66
2022/04/23 03:34:49;;;;;;;22.08;19.17;;;;;;;9.24;60.89;97523.06;2618054;54;20030;-67
2022/04/23 03:37:21;;;;;;;22.55;18.95;;;;;;;9.24;61.03;97520.44;2617651;54;20038;-66
2022/04/23 03:39:51;;;;;;;21.75;19.20;;;;;;;9.20;61.22;97513.97;2618047;54;20081;-67
2022/04/23 03:42:20;;;;;;;27.52;18.88;;;;;;;9.14;61.67;97516.47;2618399;39;20509;-66
2022/04/23 03:44:50;;;;;;;20.98;18.58;;;;;;;9.07;61.83;97514.88;2617445;54;20042;-66
2022/04/23 03:47:20;;;;;;;20.70;18.33;;;;;;;9.06;61.79;97515.88;2617620;54;20546;-66
2022/04/23 03:49:49;;;;;;;20.00;17.48;;;;;;;8.99;62.01;97509.88;2617940;54;20030;-67
2022/04/23 03:52:22;;;;;;;24.23;19.50;;;;;;;9.02;61.97;97510.25;2618903;39;20420;-67
2022/04/23 03:54:51;;;;;;;23.23;20.80;;;;;;;9.01;62.39;97511.25;2626575;39;20439;-67
2022/04/23 03:57:21;;;;;;;24.38;19.58;;;;;;;8.96;61.99;97511.09;2620984;39;20412;-67
2022/04/23 03:59:51;;;;;;;22.25;19.45;;;;;;;8.92;62.08;97515.97;2618421;54;20038;-66
2022/04/23 04:02:20;;;;;;;27.50;20.05;;;;;;;8.86;62.71;97514.22;2618056;54;20562;-67
2022/04/23 04:04:51;;;;;;;22.08;17.83;;;;;;;8.85;62.80;97519.69;2617331;54;20534;-66
2022/04/23 04:07:23;;;;;;;23.13;18.90;;;;;;;8.86;62.65;97518.69;2617600;54;20023;-68
2022/04/23 04:09:52;;;;;;;24.45;19.85;;;;;;;8.83;62.95;97514.63;2617933;54;20031;-67
2022/04/23 04:12:22;;;;;;;21.48;18.80;;;;;;;8.79;63.33;97518.72;2617964;54;20038;-68
2022/04/23 04:14:54;;;;;;;22.50;20.10;;;;;;;8.81;62.99;97516.66;2617629;54;20064;-64
2022/04/23 04:17:23;;;;;;;24.30;20.85;;;;;;;8.82;63.17;97517.50;2619407;54;20037;-63
2022/04/23 04:19:53;;;;;;;25.55;21.02;;;;;;;8.82;63.04;97513.03;2618389;54;20045;-63
2022/04/23 04:22:25;;;;;;;23.35;19.23;;;;;;;8.79;63.11;97513.44;2623268;46;20046;-63
2022/04/23 04:24:55;;;;;;;28.73;21.33;;;;;;;8.80;63.60;97508.97;2623388;54;20038;-63
2022/04/23 04:27:25;;;;;;;21.33;18.63;;;;;;;8.76;63.39;97510.41;2623082;54;20031;-62
2022/04/23 04:29:55;;;;;;;22.35;19.13;;;;;;;8.76;63.74;97516.50;2623512;54;20093;-63
2022/04/23 04:32:24;;;;;;;23.80;20.63;;;;;;;8.77;63.85;97515.47;2622840;54;20038;-63
2022/04/23 04:34:54;;;;;;;24.45;20.70;;;;;;;8.77;63.96;97512.03;2622512;54;20038;-64
2022/04/23 04:37:27;;;;;;;23.27;20.02;;;;;;;8.75;63.91;97514.88;2622757;54;20049;-63
2022/04/23 04:39:57;;;;;;;24.43;20.77;;;;;;;8.73;64.06;97511.66;2622628;54;20033;-64
2022/04/23 04:42:27;;;;;;;26.33;21.52;;;;;;;8.72;64.31;97504.75;2623293;54;20173;-62
2022/04/23 04:45:02;;;;;;;25.13;20.13;;;;;;;8.76;64.34;97507.78;2623281;54;20114;-63
2022/04/23 04:47:32;;;;;;;26.83;22.10;;;;;;;8.78;64.78;97503.94;2622717;54;20043;-62
2022/04/23 04:50:02;;;;;;;24.00;20.08;;;;;;;8.78;64.65;97508.41;2623184;54;20030;-62
2022/04/23 04:52:34;;;;;;;27.48;21.38;;;;;;;8.81;64.42;97508.75;2623271;54;20030;-62
2022/04/23 04:55:04;;;;;;;24.75;20.10;;;;;;;8.86;64.46;97516.84;2623346;54;20042;-62
2022/04/23 04:57:34;;;;;;;23.67;20.25;;;;;;;8.98;64.14;97516.16;2623296;54;20027;-63
2022/04/23 05:00:04;;;;;;;23.83;19.08;;;;;;;9.00;64.15;97517.56;2623189;54;20023;-64
2022/04/23 05:02:33;;;;;;;24.75;20.65;;;;;;;8.95;64.66;97513.97;2623226;54;20027;-64
2022/04/23 05:05:03;;;;;;;28.58;21.35;;;;;;;8.95;64.37;97516.59;2623679;39;20086;-64
2022/04/23 05:07:35;;;;;;;24.00;19.63;;;;;;;8.90;64.72;97518.03;2622022;54;20038;-63
2022/04/23 05:10:06;;;;;;;24.23;20.48;;;;;;;8.86;65.20;97516.06;2621219;54;20030;-64
2022/04/23 05:12:35;;;;;;;23.95;19.80;;;;;;;8.86;65.23;97518.69;2619682;54;20034;-64
2022/04/23 05:15:05;;;;;;;25.77;20.38;;;;;;;8.86;65.36;97526.59;2619665;54;20574;-64
2022/04/23 05:17:35;;;;;;;26.27;21.08;;;;;;;8.93;65.20;97524.69;2621731;54;20045;-62
2022/04/23 05:20:05;;;;;;;25.70;20.55;;;;;;;9.00;64.89;97529.94;2621868;54;20555;-65
2022/04/23 05:22:38;;;;;;;23.27;19.05;;;;;;;9.02;65.26;97533.16;2622055;54;20048;-63
2022/04/23 05:25:08;;;;;;;24.77;20.65;;;;;;;9.02;65.28;97539.25;2622415;54;20569;-63
2022/04/23 05:27:38;;;;;;;24.88;21.60;;;;;;;9.08;65.20;97541.03;2623204;54;20554;-63
2022/04/23 05:30:09;;;;;;;24.42;20.50;;;;;;;9.16;65.33;97538.13;2622847;54;20041;-64
2022/04/23 05:32:39;;;;;;;24.05;21.20;;;;;;;9.19;65.12;97542.19;2623080;54;20030;-62
2022/04/23 05:35:13;;;;;;;;;;;;;;;9.26;65.15;97550.03;2623255;54;20037;-63
2022/04/23 05:37:45;;;;;;;24.15;20.50;;;;;;;9.32;65.19;97551.81;2622819;54;20435;-62
2022/04/23 05:40:15;;;;;;;22.23;19.65;;;;;;;9.45;64.82;97542.97;2622435;54;20034;-62
2022/04/23 05:42:45;;;;;;;29.52;24.70;;;;;;;9.56;64.26;97537.81;2622462;47;20026;-63
2022/04/23 05:45:14;;;;;;;26.02;20.30;;;;;;;9.63;64.60;97540.38;2622506;54;20035;-63
2022/04/23 05:47:44;;;;;;;24.00;20.48;;;;;;;9.72;64.29;97544.38;2622138;54;20045;-65
2022/04/23 05:50:14;;;;;;;26.15;21.05;;;;;;;9.79;64.12;97544.28;2622632;54;20534;-63
2022/04/23 05:52:46;;;;;;;25.33;21.92;;;;;;;9.89;64.17;97550.69;2622654;54;20030;-63
2022/04/23 05:55:16;;;;;;;23.08;19.38;;;;;;;9.97;64.06;97543.53;2622094;39;20732;-63
2022/04/23 05:57:46;;;;;;;27.67;21.13;;;;;;;10.04;63.36;97547.72;2621918;54;20038;-64
2022/04/23 06:00:17;;;;;;;25.92;21.00;;;;;;;10.08;63.30;97543.59;2622703;54;20577;-64
2022/04/23 06:02:47;;;;;;;25.23;20.20;;;;;;;10.03;63.76;97548.72;2622095;54;20065;-62
2022/04/23 06:05:16;;;;;;;32.40;23.45;;;;;;;10.08;63.87;97554.16;2622013;54;20082;-66
2022/04/23 06:07:49;;;;;;;29.13;23.42;;;;;;;10.09;63.56;97552.31;2621407;54;20043;-64
2022/04/23 06:10:18;;;;;;;26.40;21.75;;;;;;;10.12;63.60;97550.06;2621258;54;20042;-62
2022/04/23 06:12:48;;;;;;;26.23;22.27;;;;;;;10.23;63.67;97551.13;2620840;54;20034;-62
2022/04/23 06:15:17;;;;;;;24.67;20.05;;;;;;;10.31;63.11;97552.72;2621926;39;20404;-62
2022/04/23 06:17:47;;;;;;;23.45;20.58;;;;;;;10.38;63.21;97558.72;2621030;54;20157;-64
2022/04/23 06:20:16;;;;;;;23.85;21.35;;;;;;;10.38;63.15;97554.25;2621653;47;20030;-64
2022/04/23 06:22:49;;;;;;;22.33;19.77;;;;;;;10.47;63.60;97556.59;2621490;54;20027;-63
2022/04/23 06:25:18;;;;;;;22.58;19.58;;;;;;;10.58;63.20;97566.41;2621575;54;20047;-66
2022/04/23 06:27:50;;;;;;;21.73;19.45;;;;;;;10.65;63.15;97570.59;2620475;54;20031;-65
2022/04/23 06:30:19;;;;;;;23.05;20.27;;;;;;;10.70;63.24;97569.13;2621070;54;20045;-64
2022/04/23 06:32:49;;;;;;;22.42;19.48;;;;;;;10.80;62.41;97570.19;2621289;54;20038;-64
2022/04/23 06:35:19;;;;;;;22.67;20.38;;;;;;;10.96;62.48;97574.03;2621054;54;20095;-65
2022/04/23 06:37:51;;;;;;;23.58;20.38;;;;;;;11.02;61.84;97570.50;2621010;54;20033;-65
2022/04/23 06:40:20;;;;;;;23.17;20.67;;;;;;;10.98;62.00;97565.88;2621331;54;20038;-64
2022/04/23 06:42:50;;;;;;;23.20;20.77;;;;;;;11.05;62.43;97570.03;2622482;54;20031;-64
2022/04/23 06:45:22;;;;;;;21.95;19.25;;;;;;;11.17;62.08;97567.44;2622111;39;20466;-64
2022/04/23 06:48:02;;;;;;;24.02;21.42;;;;;;;11.30;62.00;97569.88;2621619;54;20563;-64
2022/04/23 06:50:32;;;;;;;23.60;20.67;;;;;;;11.42;61.60;97559.31;2622421;54;20041;-67
2022/04/23 06:53:06;;;;;;;20.08;18.02;;;;;;;11.49;61.38;97559.22;2622600;54;20042;-65
2022/04/23 06:55:36;;;;;;;20.52;18.35;;;;;;;11.55;61.07;97568.88;2621881;54;20035;-65
2022/04/23 06:58:06;;;;;;;24.10;20.13;;;;;;;11.63;61.28;97561.41;2622269;54;20042;-65
2022/04/23 07:00:38;;;;;;;20.83;17.48;;;;;;;11.68;61.23;97563.38;2622579;54;20037;-65
2022/04/23 07:03:07;;;;;;;22.08;18.08;;;;;;;11.79;60.28;97561.75;2622195;54;20038;-64
2022/04/23 07:05:37;;;;;;;21.00;17.70;;;;;;;11.83;60.26;97560.28;2622339;54;20082;-64
2022/04/23 07:08:10;;;;;;;20.15;18.10;;;;;;;11.94;60.31;97564.78;2621992;54;20038;-65
2022/04/23 07:10:39;;;;;;;20.65;18.45;;;;;;;12.11;59.83;97565.69;2622324;54;20030;-65
2022/04/23 07:13:10;;;;;;;19.17;17.17;;;;;;;12.25;60.13;97565.44;2622249;54;20026;-65
2022/04/23 07:15:41;;;;;;;19.35;17.50;;;;;;;12.39;59.40;97569.44;2622811;54;20049;-67
2022/04/23 07:18:11;;;;;;;19.77;17.75;;;;;;;12.49;59.29;97566.19;2622135;54;20039;-64
2022/04/23 07:20:40;;;;;;;19.50;17.30;;;;;;;12.57;59.00;97566.63;2621805;54;20034;-63
2022/04/23 07:25:55;;;;;;;19.00;17.05;;;;;;;12.69;57.78;97571.06;2621635;54;20040;-65
2022/04/23 07:28:25;;;;;;;19.85;17.95;;;;;;;12.68;58.23;97566.81;2621367;54;20042;-64
2022/04/23 07:30:55;;;;;;;18.63;16.75;;;;;;;12.78;57.59;97567.84;2621924;39;20416;-64
2022/04/23 07:38:52;;;;;;;17.52;15.77;;;;;;;12.85;57.23;97557.88;2620672;47;20087;-64
2022/04/23 07:41:22;;;;;;;15.90;13.75;;;;;;;12.90;57.22;97562.47;2620528;47;20022;-65
2022/04/23 07:43:51;;;;;;;19.55;17.58;;;;;;;12.87;57.45;97558.44;2621413;54;20035;-64
2022/04/23 07:46:21;;;;;;;19.67;17.67;;;;;;;12.88;57.36;97561.91;2621337;54;20039;-63
2022/04/23 07:48:51;;;;;;;18.05;16.35;;;;;;;12.81;57.55;97561.22;2621102;54;20057;-66
2022/04/23 07:51:21;;;;;;;18.35;16.42;;;;;;;12.90;57.59;97567.78;2621432;54;20030;-65
2022/04/23 07:53:53;;;;;;;14.40;13.00;;;;;;;13.04;57.19;97571.75;2621219;54;20037;-65
2022/04/23 07:56:23;;;;;;;15.88;14.18;;;;;;;13.26;57.13;97566.56;2621830;39;20439;-64
2022/04/23 07:58:52;;;;;;;14.50;13.15;;;;;;;13.43;56.04;97568.44;2621345;54;20033;-64
2022/04/23 08:01:22;;;;;;;15.18;13.55;;;;;;;13.53;55.86;97561.44;2622082;54;20034;-64
2022/04/23 08:03:52;;;;;;;15.38;13.85;;;;;;;13.70;55.49;97564.09;2623949;54;20075;-64
2022/04/23 08:06:21;;;;;;;15.25;13.73;;;;;;;13.76;55.16;97567.66;2623931;54;20038;-65
2022/04/23 08:08:53;;;;;;;15.00;13.50;;;;;;;13.70;54.73;97568.59;2622908;54;20033;-65
2022/04/23 08:11:24;;;;;;;16.42;14.80;;;;;;;13.68;54.57;97574.16;2621245;54;20527;-65
2022/04/23 08:13:54;;;;;;;14.93;13.52;;;;;;;13.63;54.88;97564.28;2621399;54;20045;-65
2022/04/23 08:16:26;;;;;;;13.73;12.43;;;;;;;13.73;55.19;97558.31;2621310;54;20042;-65
2022/04/23 08:18:57;;;;;;;13.75;12.38;;;;;;;13.82;54.81;97545.41;2621398;54;20042;-64
2022/04/23 08:21:27;;;;;;;13.70;12.40;;;;;;;13.80;54.17;97542.22;2621933;39;20430;-65
2022/04/23 08:23:59;;;;;;;12.85;11.60;;;;;;;13.86;54.30;97539.38;2620568;54;20046;-64
2022/04/23 08:26:29;;;;;;;12.82;11.63;;;;;;;13.95;54.32;97542.41;2621301;54;20038;-64
2022/04/23 08:31:41;;;;;;;13.13;11.93;;;;;;;14.21;53.73;97559.50;2620439;54;20056;-65
2022/04/23 08:34:12;;;;;;;13.40;12.10;;;;;;;14.32;53.48;97557.78;2620666;54;20038;-63
2022/04/23 08:36:42;;;;;;;13.88;12.48;;;;;;;14.33;52.70;97548.78;2620121;54;20040;-65
2022/04/23 08:39:14;;;;;;;14.27;12.77;;;;;;;14.20;52.78;97563.19;2620324;54;20034;-65
2022/04/23 08:41:48;;;;;;;13.45;12.00;;;;;;;14.17;52.83;97554.94;2621273;54;20030;-66
2022/04/23 08:44:18;;;;;;;13.45;12.25;;;;;;;14.11;53.44;97562.03;2621613;54;20037;-65
2022/04/23 08:46:48;;;;;;;13.32;12.05;;;;;;;14.08;53.46;97565.16;2621073;54;20038;-64
2022/04/23 08:49:19;;;;;;;13.23;11.85;;;;;;;14.06;53.49;97561.97;2621243;54;20034;-64
2022/04/23 08:51:53;;;;;;;12.70;11.30;;;;;;;14.06;53.25;97568.06;2621017;54;20045;-65
2022/04/23 08:54:26;;;;;;;13.45;12.15;;;;;;;14.07;53.28;97561.69;2620517;54;20026;-64
2022/04/23 08:56:56;;;;;;;12.52;11.32;;;;;;;14.20;53.44;97565.06;2621902;39;20455;-65
2022/04/23 08:59:26;;;;;;;12.52;11.43;;;;;;;14.29;53.00;97560.94;2621437;54;20046;-63
2022/04/23 09:01:58;;;;;;;11.25;10.05;;;;;;;14.31;52.09;97559.63;2621665;46;20042;-64
2022/04/23 09:04:28;;;;;;;12.00;10.90;;;;;;;14.28;52.40;97560.13;2619832;54;20531;-64
2022/04/23 09:07:01;;;;;;;11.75;10.55;;;;;;;14.40;52.37;97553.88;2620972;54;20046;-64
2022/04/23 09:09:33;;;;;;;11.77;10.68;;;;;;;14.60;52.35;97554.16;2621756;54;20070;-65
2022/04/23 09:12:03;;;;;;;11.50;10.50;;;;;;;14.84;51.60;97550.16;2620849;47;20061;-64
2022/04/23 09:14:35;;;;;;;10.57;9.57;;;;;;;15.04;51.42;97546.09;2621230;54;20033;-65
2022/04/23 09:25:19;;;;;;;11.70;10.50;;;;;;;15.53;49.40;97560.13;2619780;54;20034;-64
2022/04/23 09:27:48;;;;;;;12.95;11.68;;;;;;;15.53;49.90;97551.31;2619106;54;20046;-64
2022/04/23 09:30:18;;;;;;;14.77;9.60;;;;;;;15.64;49.99;97545.03;2619832;54;20042;-64
2022/04/23 09:33:00;;;;;;;10.15;9.18;;;;;;;15.80;49.47;97551.28;2620944;54;20071;-65
2022/04/23 09:35:30;;;;;;;9.88;8.98;;;;;;;15.89;49.34;97543.63;2621109;46;20133;-65
2022/04/23 09:38:18;;;;;;;9.15;8.25;;;;;;;15.93;48.36;97545.50;2618926;54;20037;-65
2022/04/23 09:40:55;;;;;;;11.20;10.05;;;;;;;15.79;48.85;97550.47;2618994;54;20038;-64
2022/04/23 09:43:30;;;;;;;11.02;9.95;;;;;;;15.79;48.95;97552.34;2618685;54;20030;-64
2022/04/23 09:46:05;;;;;;;10.70;9.70;;;;;;;15.71;48.45;97555.47;2617774;47;20121;-65
2022/04/23 09:48:43;;;;;;;9.00;8.20;;;;;;;15.71;48.33;97553.59;2620396;54;20079;-65
2022/04/23 09:51:24;;;;;;;8.50;7.68;;;;;;;15.71;47.87;97558.13;2618115;54;20039;-65
2022/04/23 09:53:57;;;;;;;8.50;7.70;;;;;;;15.69;48.00;97553.06;2617979;47;20054;-64
2022/04/23 09:56:29;;;;;;;9.23;8.35;;;;;;;15.75;48.41;97553.91;2618039;47;20134;-64
2022/04/23 09:58:58;;;;;;;7.78;7.07;;;;;;;15.84;47.92;97555.84;2618368;54;20026;-64
2022/04/23 10:01:28;;;;;;;7.38;6.68;;;;;;;15.97;47.81;97551.13;2618591;54;20551;-66
2022/04/23 10:03:58;;;;;;;7.88;7.18;;;;;;;16.01;47.42;97547.69;2619333;54;20043;-65
2022/04/23 10:06:35;;;;;;;7.75;7.07;;;;;;;15.99;47.76;97554.31;2618728;54;20030;-65
2022/04/23 10:09:08;;;;;;;7.68;6.97;;;;;;;16.01;47.10;97554.88;2618201;39;20419;-65
2022/04/23 10:11:45;;;;;;;8.05;7.35;;;;;;;16.10;47.42;97558.66;2619639;39;20416;-64
2022/04/23 10:14:19;;;;;;;7.68;6.97;;;;;;;16.15;46.91;97552.56;2619388;54;20052;-65
2022/04/23 10:16:50;;;;;;;8.50;6.07;;;;;;;16.45;46.59;97549.22;2619658;52;20122;-61
2022/04/23 10:19:23;;;;;;;7.45;6.82;;;;;;;16.72;45.64;97541.84;2620030;54;20034;-64
2022/04/23 10:21:58;;;;;;;6.63;6.13;;;;;;;16.75;45.53;97545.91;2619234;54;20034;-66
2022/04/23 10:24:36;;;;;;;6.00;5.50;;;;;;;16.69;45.38;97547.69;2619356;54;20043;-64
2022/04/23 10:27:09;;;;;;;6.68;6.00;;;;;;;16.72;44.83;97552.53;2618584;47;20038;-64
2022/04/23 10:29:39;;;;;;;6.13;5.63;;;;;;;16.49;45.48;97551.13;2620470;54;20034;-64
2022/04/23 10:32:24;;;;;;;6.93;6.32;;;;;;;16.58;45.86;97551.41;2621254;39;20407;-65
2022/04/23 10:34:54;;;;;;;6.75;6.20;;;;;;;16.57;45.53;97555.13;2622237;47;20045;-64
2022/04/23 10:37:27;;;;;;;7.28;6.40;;;;;;;16.49;45.56;97547.63;2623300;54;20038;-64
2022/04/23 10:40:16;;;;;;;7.28;6.47;;;;;;;16.62;45.89;97547.16;2623300;54;20547;-65
2022/04/23 10:43:13;;;;;;;6.47;5.97;;;;;;;16.77;45.17;97546.44;2621699;54;20055;-66
2022/04/23 10:45:43;;;;;;;6.47;5.88;;;;;;;16.92;45.02;97551.81;2622922;39;20537;-64
2022/04/23 10:48:30;;;;;;;6.55;6.05;;;;;;;17.22;44.47;97556.38;2621832;54;20034;-64
2022/04/23 10:51:08;;;;;;;6.47;5.68;;;;;;;17.30;44.03;97547.84;2623251;39;20427;-67
2022/04/23 10:53:55;;;;;;;7.20;5.03;;;;;;;17.45;43.43;97546.25;2621217;47;20031;-65
2022/04/23 10:56:26;;;;;;;6.60;5.65;;;;;;;17.39;43.54;97555.31;2622763;54;20058;-71
2022/04/23 10:58:58;;;;;;;6.78;6.18;;;;;;;17.33;43.40;97555.34;2621521;54;20034;-66
2022/04/23 11:01:30;;;;;;;5.72;5.22;;;;;;;17.34;43.52;97548.13;2619586;47;20542;-66
2022/04/23 11:04:21;;;;;;;6.78;6.03;;;;;;;17.28;43.69;97539.31;2619971;54;20026;-65
2022/04/23 11:12:37;;;;;;;4.82;4.43;;;;;;;17.44;43.97;97548.13;2619844;54;20031;-65
2022/04/23 11:15:20;;;;;;;6.35;5.07;;;;;;;17.52;43.39;97550.28;2619825;54;20038;-64
2022/04/23 11:17:58;;;;;;;6.50;5.90;;;;;;;17.43;42.89;97553.72;2619841;54;20034;-64
2022/04/23 11:20:34;;;;;;;5.28;4.78;;;;;;;17.36;43.83;97540.66;2619769;54;20081;-65
2022/04/23 11:23:04;;;;;;;5.82;5.13;;;;;;;17.50;43.83;97539.03;2619850;54;20046;-66
2022/04/23 11:25:34;;;;;;;4.53;4.13;;;;;;;17.72;42.91;97538.78;2619389;54;20042;-65
2022/04/23 11:28:24;;;;;;;4.95;4.55;;;;;;;17.65;42.95;97540.09;2619356;54;20199;-65
2022/04/23 11:30:57;;;;;;;5.00;4.53;;;;;;;17.79;42.82;97527.81;2620252;39;20448;-65
2022/04/23 11:33:26;;;;;;;4.50;4.20;;;;;;;17.83;42.97;97527.00;2619708;54;20027;-65
2022/04/23 11:36:00;;;;;;;6.18;4.07;;;;;;;18.03;42.58;97533.38;2620607;47;20034;-66
2022/04/23 11:38:31;;;;;;;4.55;4.18;;;;;;;18.07;41.91;97529.09;2619203;54;20136;-64
2022/04/23 11:41:01;;;;;;;5.03;4.63;;;;;;;17.94;41.81;97535.00;2619846;54;20543;-65
2022/04/23 11:43:32;;;;;;;5.22;4.70;;;;;;;17.77;41.87;97533.44;2619787;54;20570;-65
2022/04/23 11:46:11;;;;;;;4.50;4.10;;;;;;;17.72;42.03;97530.75;2619668;54;20038;-65
2022/04/23 11:48:48;;;;;;;4.95;3.70;;;;;;;17.87;41.86;97531.81;2619795;54;20039;-64
2022/04/23 11:51:21;;;;;;;7.05;6.35;;;;;;;18.09;41.20;97528.84;2619549;54;20034;-63
2022/04/23 11:54:00;;;;;;;4.45;4.05;;;;;;;18.27;40.67;97522.88;2619470;54;20034;-65
2022/04/23 11:56:32;;;;;;;5.10;4.53;;;;;;;18.34;40.99;97522.59;2620319;39;20419;-65
2022/04/23 11:59:05;;;;;;;4.47;4.10;;;;;;;18.43;40.64;97523.63;2619450;54;20038;-65
2022/04/23 12:01:41;;;;;;;4.40;3.95;;;;;;;18.31;40.52;97524.72;2620065;39;20404;-64
2022/04/23 12:04:13;;;;;;;4.90;3.90;;;;;;;18.17;40.64;97520.25;2619520;54;20063;-65
2022/04/23 12:06:47;;;;;;;4.80;4.30;;;;;;;18.07;40.99;97518.41;2619778;54;20035;-65
2022/04/23 12:09:17;;;;;;;4.82;3.85;;;;;;;18.03;40.45;97533.38;2619447;54;20069;-65